sensor_id;sensor_type;location;lat;lon;timestamp;P1;durP1;ratioP1;P2;durP2;ratioP2
51312;SDS011;37397;53.226;10.400;2023-08-01T00:00:08;4.28;;;2.45;;
51312;SDS011;37397;53.226;10.400;2023-08-01T00:02:38;3.95;;;2.38;;
51312;SDS011;37397;53.226;10.400;2023-08-01T00:05:05;3.50;;;2.17;;
51312;SDS011;37397;53.226;10.400;2023-08-01T00:07:32;3.10;;;2.05;;
51312;SDS011;37397;53.226;10.400;2023-08-01T00:10:03;4.70;;;2.30;;
51312;SDS011;37397;53.226;10.400;2023-08-01T00:12:29;3.53;;;2.00;;
51312;SDS011;37397;53.226;10.400;2023-08-01T00:14:56;6.05;;;2.17;;
51312;SDS011;37397;53.226;10.400;2023-08-01T00:17:23;5.25;;;2.10;;
51312;SDS011;37397;53.226;10.400;2023-08-01T00:19:50;4.10;;;2.42;;
51312;SDS011;37397;53.226;10.400;2023-08-01T00:22:16;3.20;;;2.17;;
51312;SDS011;37397;53.226;10.400;2023-08-01T00:24:43;3.80;;;2.13;;
51312;SDS011;37397;53.226;10.400;2023-08-01T00:27:09;3.25;;;1.73;;
51312;SDS011;37397;53.226;10.400;2023-08-01T00:29:36;5.05;;;2.25;;
51312;SDS011;37397;53.226;10.400;2023-08-01T00:32:03;2.30;;;1.75;;
51312;SDS011;37397;53.226;10.400;2023-08-01T00:34:30;3.33;;;1.92;;
51312;SDS011;37397;53.226;10.400;2023-08-01T00:36:57;2.97;;;1.92;;
51312;SDS011;37397;53.226;10.400;2023-08-01T00:39:24;2.72;;;1.80;;
51312;SDS011;37397;53.226;10.400;2023-08-01T00:41:50;1.85;;;1.55;;
51312;SDS011;37397;53.226;10.400;2023-08-01T00:44:17;3.75;;;1.80;;
51312;SDS011;37397;53.226;10.400;2023-08-01T00:46:43;1.73;;;1.52;;
51312;SDS011;37397;53.226;10.400;2023-08-01T00:49:11;3.75;;;1.83;;
51312;SDS011;37397;53.226;10.400;2023-08-01T00:51:39;2.65;;;1.63;;
51312;SDS011;37397;53.226;10.400;2023-08-01T00:54:06;3.30;;;1.73;;
51312;SDS011;37397;53.226;10.400;2023-08-01T00:56:32;3.35;;;1.45;;
51312;SDS011;37397;53.226;10.400;2023-08-01T00:58:59;2.17;;;1.80;;
51312;SDS011;37397;53.226;10.400;2023-08-01T01:01:26;3.05;;;1.75;;
51312;SDS011;37397;53.226;10.400;2023-08-01T01:03:54;3.58;;;1.60;;
51312;SDS011;37397;53.226;10.400;2023-08-01T01:08:58;2.28;;;1.65;;
51312;SDS011;37397;53.226;10.400;2023-08-01T01:11:25;1.95;;;1.60;;
51312;SDS011;37397;53.226;10.400;2023-08-01T01:13:52;3.25;;;1.90;;
51312;SDS011;37397;53.226;10.400;2023-08-01T01:16:20;2.70;;;1.95;;
51312;SDS011;37397;53.226;10.400;2023-08-01T01:18:47;2.13;;;1.90;;
51312;SDS011;37397;53.226;10.400;2023-08-01T01:21:14;2.45;;;1.75;;
51312;SDS011;37397;53.226;10.400;2023-08-01T01:23:40;2.58;;;1.77;;
51312;SDS011;37397;53.226;10.400;2023-08-01T01:26:09;3.75;;;1.85;;
51312;SDS011;37397;53.226;10.400;2023-08-01T01:28:37;4.00;;;1.80;;
51312;SDS011;37397;53.226;10.400;2023-08-01T01:31:03;2.72;;;1.90;;
51312;SDS011;37397;53.226;10.400;2023-08-01T01:33:31;3.65;;;2.28;;
51312;SDS011;37397;53.226;10.400;2023-08-01T01:36:00;2.88;;;1.95;;
51312;SDS011;37397;53.226;10.400;2023-08-01T01:38:27;5.07;;;1.88;;
51312;SDS011;37397;53.226;10.400;2023-08-01T01:40:54;3.17;;;2.13;;
51312;SDS011;37397;53.226;10.400;2023-08-01T01:43:20;3.58;;;2.17;;
51312;SDS011;37397;53.226;10.400;2023-08-01T01:45:47;4.80;;;1.98;;
51312;SDS011;37397;53.226;10.400;2023-08-01T01:48:13;2.88;;;1.60;;
51312;SDS011;37397;53.226;10.400;2023-08-01T01:50:40;2.58;;;1.95;;
51312;SDS011;37397;53.226;10.400;2023-08-01T01:53:06;5.22;;;2.28;;
51312;SDS011;37397;53.226;10.400;2023-08-01T01:55:33;2.35;;;1.83;;
51312;SDS011;37397;53.226;10.400;2023-08-01T01:58:00;4.60;;;2.00;;
51312;SDS011;37397;53.226;10.400;2023-08-01T02:00:27;4.53;;;1.90;;
51312;SDS011;37397;53.226;10.400;2023-08-01T02:02:53;4.05;;;1.98;;
51312;SDS011;37397;53.226;10.400;2023-08-01T02:05:20;2.35;;;1.73;;
51312;SDS011;37397;53.226;10.400;2023-08-01T02:07:47;3.25;;;1.98;;
51312;SDS011;37397;53.226;10.400;2023-08-01T02:10:14;2.78;;;1.95;;
51312;SDS011;37397;53.226;10.400;2023-08-01T02:12:41;3.65;;;2.35;;
51312;SDS011;37397;53.226;10.400;2023-08-01T02:15:07;4.05;;;1.90;;
51312;SDS011;37397;53.226;10.400;2023-08-01T02:17:34;4.20;;;2.45;;
51312;SDS011;37397;53.226;10.400;2023-08-01T02:20:01;3.20;;;2.00;;
51312;SDS011;37397;53.226;10.400;2023-08-01T02:22:29;3.83;;;2.13;;
51312;SDS011;37397;53.226;10.400;2023-08-01T02:24:56;3.70;;;2.22;;
51312;SDS011;37397;53.226;10.400;2023-08-01T02:27:23;3.58;;;2.03;;
51312;SDS011;37397;53.226;10.400;2023-08-01T02:29:49;2.90;;;2.30;;
51312;SDS011;37397;53.226;10.400;2023-08-01T02:32:17;4.88;;;2.25;;
51312;SDS011;37397;53.226;10.400;2023-08-01T02:34:44;3.85;;;2.25;;
51312;SDS011;37397;53.226;10.400;2023-08-01T02:37:10;3.17;;;2.00;;
51312;SDS011;37397;53.226;10.400;2023-08-01T02:39:37;4.28;;;2.40;;
51312;SDS011;37397;53.226;10.400;2023-08-01T02:42:03;2.28;;;1.80;;
51312;SDS011;37397;53.226;10.400;2023-08-01T02:44:30;4.90;;;2.20;;
51312;SDS011;37397;53.226;10.400;2023-08-01T02:46:57;3.10;;;2.25;;
51312;SDS011;37397;53.226;10.400;2023-08-01T02:49:23;3.35;;;2.03;;
51312;SDS011;37397;53.226;10.400;2023-08-01T02:51:50;3.78;;;2.22;;
51312;SDS011;37397;53.226;10.400;2023-08-01T02:54:16;3.63;;;2.28;;
51312;SDS011;37397;53.226;10.400;2023-08-01T02:56:43;4.75;;;2.40;;
51312;SDS011;37397;53.226;10.400;2023-08-01T02:59:09;4.65;;;2.45;;
51312;SDS011;37397;53.226;10.400;2023-08-01T03:01:37;3.60;;;2.25;;
51312;SDS011;37397;53.226;10.400;2023-08-01T03:04:05;4.03;;;2.45;;
51312;SDS011;37397;53.226;10.400;2023-08-01T03:06:32;3.63;;;2.13;;
51312;SDS011;37397;53.226;10.400;2023-08-01T03:08:59;3.15;;;2.28;;
51312;SDS011;37397;53.226;10.400;2023-08-01T03:11:26;3.33;;;2.33;;
51312;SDS011;37397;53.226;10.400;2023-08-01T03:13:53;2.92;;;2.33;;
51312;SDS011;37397;53.226;10.400;2023-08-01T03:16:20;3.22;;;2.30;;
51312;SDS011;37397;53.226;10.400;2023-08-01T03:18:47;4.15;;;2.17;;
51312;SDS011;37397;53.226;10.400;2023-08-01T03:21:13;5.50;;;2.20;;
51312;SDS011;37397;53.226;10.400;2023-08-01T03:23:40;3.58;;;2.05;;
51312;SDS011;37397;53.226;10.400;2023-08-01T03:26:07;3.92;;;2.28;;
51312;SDS011;37397;53.226;10.400;2023-08-01T03:28:33;3.70;;;2.17;;
51312;SDS011;37397;53.226;10.400;2023-08-01T03:31:00;2.40;;;2.00;;
51312;SDS011;37397;53.226;10.400;2023-08-01T03:33:27;4.32;;;2.10;;
51312;SDS011;37397;53.226;10.400;2023-08-01T03:35:54;3.63;;;2.25;;
51312;SDS011;37397;53.226;10.400;2023-08-01T03:38:20;2.88;;;1.77;;
51312;SDS011;37397;53.226;10.400;2023-08-01T03:40:47;3.28;;;2.20;;
51312;SDS011;37397;53.226;10.400;2023-08-01T03:43:13;2.70;;;2.08;;
51312;SDS011;37397;53.226;10.400;2023-08-01T03:45:40;2.42;;;1.88;;
51312;SDS011;37397;53.226;10.400;2023-08-01T03:48:07;4.38;;;1.90;;
51312;SDS011;37397;53.226;10.400;2023-08-01T03:50:33;3.58;;;2.05;;
51312;SDS011;37397;53.226;10.400;2023-08-01T03:53:00;2.25;;;1.80;;
51312;SDS011;37397;53.226;10.400;2023-08-01T03:55:26;4.63;;;2.10;;
51312;SDS011;37397;53.226;10.400;2023-08-01T03:57:53;3.40;;;1.98;;
51312;SDS011;37397;53.226;10.400;2023-08-01T04:00:19;4.22;;;2.28;;
51312;SDS011;37397;53.226;10.400;2023-08-01T04:02:46;2.53;;;1.85;;
51312;SDS011;37397;53.226;10.400;2023-08-01T04:05:16;3.45;;;2.00;;
51312;SDS011;37397;53.226;10.400;2023-08-01T04:07:43;3.60;;;2.20;;
51312;SDS011;37397;53.226;10.400;2023-08-01T04:10:10;3.42;;;2.25;;
51312;SDS011;37397;53.226;10.400;2023-08-01T04:12:36;4.30;;;2.35;;
51312;SDS011;37397;53.226;10.400;2023-08-01T04:15:03;3.67;;;2.20;;
51312;SDS011;37397;53.226;10.400;2023-08-01T04:17:30;4.28;;;2.40;;
51312;SDS011;37397;53.226;10.400;2023-08-01T04:19:56;5.60;;;2.00;;
51312;SDS011;37397;53.226;10.400;2023-08-01T04:22:23;3.60;;;2.10;;
51312;SDS011;37397;53.226;10.400;2023-08-01T04:24:49;4.30;;;2.30;;
51312;SDS011;37397;53.226;10.400;2023-08-01T04:27:17;3.92;;;2.03;;
51312;SDS011;37397;53.226;10.400;2023-08-01T04:29:43;4.07;;;2.33;;
51312;SDS011;37397;53.226;10.400;2023-08-01T04:32:10;2.97;;;2.30;;
51312;SDS011;37397;53.226;10.400;2023-08-01T04:34:39;5.28;;;2.47;;
51312;SDS011;37397;53.226;10.400;2023-08-01T04:37:06;3.13;;;2.05;;
51312;SDS011;37397;53.226;10.400;2023-08-01T04:39:32;4.90;;;2.25;;
51312;SDS011;37397;53.226;10.400;2023-08-01T04:41:59;5.13;;;2.65;;
51312;SDS011;37397;53.226;10.400;2023-08-01T04:44:25;5.15;;;2.22;;
51312;SDS011;37397;53.226;10.400;2023-08-01T04:46:52;4.20;;;2.20;;
51312;SDS011;37397;53.226;10.400;2023-08-01T04:49:18;3.97;;;2.40;;
51312;SDS011;37397;53.226;10.400;2023-08-01T04:51:45;2.72;;;2.15;;
51312;SDS011;37397;53.226;10.400;2023-08-01T04:54:11;4.43;;;2.25;;
51312;SDS011;37397;53.226;10.400;2023-08-01T04:56:38;4.80;;;2.42;;
51312;SDS011;37397;53.226;10.400;2023-08-01T04:59:05;2.42;;;2.05;;
51312;SDS011;37397;53.226;10.400;2023-08-01T05:01:32;3.67;;;2.30;;
51312;SDS011;37397;53.226;10.400;2023-08-01T05:03:58;5.30;;;2.60;;
51312;SDS011;37397;53.226;10.400;2023-08-01T05:06:25;3.80;;;2.15;;
51312;SDS011;37397;53.226;10.400;2023-08-01T05:08:52;4.10;;;2.28;;
51312;SDS011;37397;53.226;10.400;2023-08-01T05:11:18;3.35;;;2.20;;
51312;SDS011;37397;53.226;10.400;2023-08-01T05:13:45;4.10;;;2.17;;
51312;SDS011;37397;53.226;10.400;2023-08-01T05:16:11;5.20;;;2.10;;
51312;SDS011;37397;53.226;10.400;2023-08-01T05:18:38;2.10;;;1.90;;
51312;SDS011;37397;53.226;10.400;2023-08-01T05:21:04;3.10;;;2.17;;
51312;SDS011;37397;53.226;10.400;2023-08-01T05:23:31;3.78;;;2.50;;
51312;SDS011;37397;53.226;10.400;2023-08-01T05:25:57;2.20;;;2.00;;
51312;SDS011;37397;53.226;10.400;2023-08-01T05:28:24;3.47;;;2.47;;
51312;SDS011;37397;53.226;10.400;2023-08-01T05:30:50;3.83;;;1.92;;
51312;SDS011;37397;53.226;10.400;2023-08-01T05:33:17;2.97;;;2.00;;
51312;SDS011;37397;53.226;10.400;2023-08-01T05:35:44;4.68;;;2.55;;
51312;SDS011;37397;53.226;10.400;2023-08-01T05:38:10;3.28;;;2.10;;
51312;SDS011;37397;53.226;10.400;2023-08-01T05:40:37;3.88;;;2.55;;
51312;SDS011;37397;53.226;10.400;2023-08-01T05:43:03;3.28;;;2.33;;
51312;SDS011;37397;53.226;10.400;2023-08-01T05:45:31;4.47;;;2.47;;
51312;SDS011;37397;53.226;10.400;2023-08-01T05:47:57;4.38;;;2.58;;
51312;SDS011;37397;53.226;10.400;2023-08-01T05:50:24;4.93;;;2.55;;
51312;SDS011;37397;53.226;10.400;2023-08-01T05:52:50;3.67;;;2.53;;
51312;SDS011;37397;53.226;10.400;2023-08-01T05:55:17;7.07;;;2.83;;
51312;SDS011;37397;53.226;10.400;2023-08-01T05:57:43;4.30;;;2.55;;
51312;SDS011;37397;53.226;10.400;2023-08-01T06:00:10;6.28;;;2.90;;
51312;SDS011;37397;53.226;10.400;2023-08-01T06:02:40;5.50;;;2.90;;
51312;SDS011;37397;53.226;10.400;2023-08-01T06:05:07;6.30;;;3.05;;
51312;SDS011;37397;53.226;10.400;2023-08-01T06:07:33;4.57;;;3.35;;
51312;SDS011;37397;53.226;10.400;2023-08-01T06:10:00;4.50;;;3.08;;
51312;SDS011;37397;53.226;10.400;2023-08-01T06:12:26;6.68;;;3.20;;
51312;SDS011;37397;53.226;10.400;2023-08-01T06:14:53;7.40;;;3.20;;
51312;SDS011;37397;53.226;10.400;2023-08-01T06:17:19;6.05;;;3.50;;
51312;SDS011;37397;53.226;10.400;2023-08-01T06:19:46;6.93;;;3.42;;
51312;SDS011;37397;53.226;10.400;2023-08-01T06:22:13;6.22;;;3.60;;
51312;SDS011;37397;53.226;10.400;2023-08-01T06:24:40;5.13;;;3.58;;
51312;SDS011;37397;53.226;10.400;2023-08-01T06:27:06;7.38;;;3.58;;
51312;SDS011;37397;53.226;10.400;2023-08-01T06:29:33;7.00;;;3.95;;
51312;SDS011;37397;53.226;10.400;2023-08-01T06:31:59;5.53;;;3.88;;
51312;SDS011;37397;53.226;10.400;2023-08-01T06:34:26;7.97;;;4.00;;
51312;SDS011;37397;53.226;10.400;2023-08-01T06:36:53;6.93;;;4.40;;
51312;SDS011;37397;53.226;10.400;2023-08-01T06:39:23;6.82;;;4.13;;
51312;SDS011;37397;53.226;10.400;2023-08-01T06:41:49;7.32;;;4.18;;
51312;SDS011;37397;53.226;10.400;2023-08-01T06:44:20;7.72;;;4.22;;
51312;SDS011;37397;53.226;10.400;2023-08-01T06:46:46;6.57;;;4.47;;
51312;SDS011;37397;53.226;10.400;2023-08-01T06:49:13;9.68;;;4.32;;
51312;SDS011;37397;53.226;10.400;2023-08-01T06:51:39;8.60;;;4.45;;
51312;SDS011;37397;53.226;10.400;2023-08-01T06:54:07;8.40;;;4.70;;
51312;SDS011;37397;53.226;10.400;2023-08-01T06:56:34;9.55;;;5.05;;
51312;SDS011;37397;53.226;10.400;2023-08-01T06:59:01;13.50;;;4.70;;
51312;SDS011;37397;53.226;10.400;2023-08-01T07:01:27;7.57;;;4.72;;
51312;SDS011;37397;53.226;10.400;2023-08-01T07:03:54;8.90;;;4.95;;
51312;SDS011;37397;53.226;10.400;2023-08-01T07:06:22;10.40;;;5.38;;
51312;SDS011;37397;53.226;10.400;2023-08-01T07:08:49;7.63;;;4.75;;
51312;SDS011;37397;53.226;10.400;2023-08-01T07:11:17;9.40;;;5.25;;
51312;SDS011;37397;53.226;10.400;2023-08-01T07:13:54;9.40;;;5.68;;
51312;SDS011;37397;53.226;10.400;2023-08-01T07:16:20;11.45;;;5.90;;
51312;SDS011;37397;53.226;10.400;2023-08-01T07:18:47;9.70;;;5.55;;
51312;SDS011;37397;53.226;10.400;2023-08-01T07:21:14;10.13;;;5.43;;
51312;SDS011;37397;53.226;10.400;2023-08-01T07:23:41;9.00;;;5.28;;
51312;SDS011;37397;53.226;10.400;2023-08-01T07:26:08;10.55;;;5.50;;
51312;SDS011;37397;53.226;10.400;2023-08-01T07:28:35;8.52;;;4.95;;
51312;SDS011;37397;53.226;10.400;2023-08-01T07:31:02;8.38;;;5.10;;
51312;SDS011;37397;53.226;10.400;2023-08-01T07:33:32;7.90;;;4.68;;
51312;SDS011;37397;53.226;10.400;2023-08-01T07:36:00;8.32;;;4.43;;
51312;SDS011;37397;53.226;10.400;2023-08-01T07:38:26;9.13;;;4.80;;
51312;SDS011;37397;53.226;10.400;2023-08-01T07:40:54;8.10;;;4.35;;
51312;SDS011;37397;53.226;10.400;2023-08-01T07:43:21;9.52;;;4.63;;
51312;SDS011;37397;53.226;10.400;2023-08-01T07:45:47;7.97;;;4.20;;
51312;SDS011;37397;53.226;10.400;2023-08-01T07:48:17;8.48;;;3.80;;
51312;SDS011;37397;53.226;10.400;2023-08-01T07:50:43;8.07;;;3.80;;
51312;SDS011;37397;53.226;10.400;2023-08-01T07:53:09;6.97;;;3.78;;
51312;SDS011;37397;53.226;10.400;2023-08-01T07:55:36;6.80;;;3.65;;
51312;SDS011;37397;53.226;10.400;2023-08-01T07:58:03;5.97;;;3.67;;
51312;SDS011;37397;53.226;10.400;2023-08-01T08:00:30;5.68;;;3.42;;
51312;SDS011;37397;53.226;10.400;2023-08-01T08:02:56;5.68;;;3.35;;
51312;SDS011;37397;53.226;10.400;2023-08-01T08:05:23;5.60;;;3.42;;
51312;SDS011;37397;53.226;10.400;2023-08-01T08:07:50;6.70;;;3.50;;
51312;SDS011;37397;53.226;10.400;2023-08-01T08:10:16;5.78;;;3.38;;
51312;SDS011;37397;53.226;10.400;2023-08-01T08:12:43;8.82;;;3.65;;
51312;SDS011;37397;53.226;10.400;2023-08-01T08:15:10;10.23;;;3.63;;
51312;SDS011;37397;53.226;10.400;2023-08-01T08:17:37;7.60;;;3.45;;
51312;SDS011;37397;53.226;10.400;2023-08-01T08:20:04;6.80;;;3.55;;
51312;SDS011;37397;53.226;10.400;2023-08-01T08:22:32;8.57;;;3.88;;
51312;SDS011;37397;53.226;10.400;2023-08-01T08:24:59;6.80;;;3.10;;
51312;SDS011;37397;53.226;10.400;2023-08-01T08:27:25;7.65;;;3.60;;
51312;SDS011;37397;53.226;10.400;2023-08-01T08:29:52;5.70;;;3.35;;
51312;SDS011;37397;53.226;10.400;2023-08-01T08:32:19;6.05;;;3.42;;
51312;SDS011;37397;53.226;10.400;2023-08-01T08:34:46;8.63;;;4.63;;
51312;SDS011;37397;53.226;10.400;2023-08-01T08:37:12;7.32;;;3.75;;
51312;SDS011;37397;53.226;10.400;2023-08-01T08:39:39;8.40;;;4.10;;
51312;SDS011;37397;53.226;10.400;2023-08-01T08:42:08;8.20;;;4.50;;
51312;SDS011;37397;53.226;10.400;2023-08-01T08:44:37;7.90;;;4.00;;
51312;SDS011;37397;53.226;10.400;2023-08-01T08:47:10;9.38;;;4.03;;
51312;SDS011;37397;53.226;10.400;2023-08-01T08:49:37;10.40;;;4.10;;
51312;SDS011;37397;53.226;10.400;2023-08-01T08:52:05;8.75;;;4.35;;
51312;SDS011;37397;53.226;10.400;2023-08-01T08:54:33;10.60;;;4.28;;
51312;SDS011;37397;53.226;10.400;2023-08-01T08:57:01;9.43;;;4.75;;
51312;SDS011;37397;53.226;10.400;2023-08-01T08:59:33;12.20;;;4.88;;
51312;SDS011;37397;53.226;10.400;2023-08-01T09:02:01;9.43;;;4.80;;
51312;SDS011;37397;53.226;10.400;2023-08-01T09:04:30;10.50;;;4.20;;
51312;SDS011;37397;53.226;10.400;2023-08-01T09:07:06;9.55;;;4.65;;
51312;SDS011;37397;53.226;10.400;2023-08-01T09:09:35;8.77;;;4.55;;
51312;SDS011;37397;53.226;10.400;2023-08-01T09:12:01;10.27;;;4.57;;
51312;SDS011;37397;53.226;10.400;2023-08-01T09:14:28;10.05;;;4.40;;
51312;SDS011;37397;53.226;10.400;2023-08-01T09:16:55;10.68;;;4.93;;
51312;SDS011;37397;53.226;10.400;2023-08-01T09:19:24;9.80;;;4.60;;
51312;SDS011;37397;53.226;10.400;2023-08-01T09:21:51;10.05;;;4.30;;
51312;SDS011;37397;53.226;10.400;2023-08-01T09:24:18;10.98;;;4.70;;
51312;SDS011;37397;53.226;10.400;2023-08-01T09:26:46;9.50;;;4.70;;
51312;SDS011;37397;53.226;10.400;2023-08-01T09:29:18;6.85;;;4.18;;
51312;SDS011;37397;53.226;10.400;2023-08-01T09:31:46;7.10;;;4.32;;
51312;SDS011;37397;53.226;10.400;2023-08-01T09:34:20;9.60;;;4.68;;
51312;SDS011;37397;53.226;10.400;2023-08-01T09:36:50;7.40;;;4.35;;
51312;SDS011;37397;53.226;10.400;2023-08-01T09:39:23;10.43;;;4.47;;
51312;SDS011;37397;53.226;10.400;2023-08-01T09:41:56;8.98;;;4.43;;
51312;SDS011;37397;53.226;10.400;2023-08-01T09:44:27;6.88;;;3.92;;
51312;SDS011;37397;53.226;10.400;2023-08-01T09:46:59;10.63;;;3.90;;
51312;SDS011;37397;53.226;10.400;2023-08-01T09:49:28;8.20;;;4.18;;
51312;SDS011;37397;53.226;10.400;2023-08-01T09:51:55;10.15;;;3.88;;
51312;SDS011;37397;53.226;10.400;2023-08-01T09:54:23;6.82;;;3.72;;
51312;SDS011;37397;53.226;10.400;2023-08-01T09:56:51;5.43;;;3.35;;
51312;SDS011;37397;53.226;10.400;2023-08-01T09:59:19;6.20;;;3.33;;
51312;SDS011;37397;53.226;10.400;2023-08-01T10:01:52;5.97;;;3.15;;
51312;SDS011;37397;53.226;10.400;2023-08-01T10:04:41;6.70;;;3.03;;
51312;SDS011;37397;53.226;10.400;2023-08-01T10:07:08;8.93;;;3.00;;
51312;SDS011;37397;53.226;10.400;2023-08-01T10:09:38;6.78;;;3.10;;
51312;SDS011;37397;53.226;10.400;2023-08-01T10:12:06;5.13;;;2.63;;
51312;SDS011;37397;53.226;10.400;2023-08-01T10:14:33;5.05;;;2.75;;
51312;SDS011;37397;53.226;10.400;2023-08-01T10:17:02;5.15;;;2.47;;
51312;SDS011;37397;53.226;10.400;2023-08-01T10:19:30;3.65;;;2.25;;
51312;SDS011;37397;53.226;10.400;2023-08-01T10:21:59;3.78;;;2.08;;
51312;SDS011;37397;53.226;10.400;2023-08-01T10:24:26;10.50;;;2.55;;
51312;SDS011;37397;53.226;10.400;2023-08-01T10:26:54;5.40;;;2.22;;
51312;SDS011;37397;53.226;10.400;2023-08-01T10:29:21;3.58;;;2.42;;
51312;SDS011;37397;53.226;10.400;2023-08-01T10:31:54;3.80;;;2.15;;
51312;SDS011;37397;53.226;10.400;2023-08-01T10:34:21;4.00;;;2.22;;
51312;SDS011;37397;53.226;10.400;2023-08-01T10:36:54;4.32;;;1.98;;
51312;SDS011;37397;53.226;10.400;2023-08-01T10:39:22;2.78;;;1.90;;
51312;SDS011;37397;53.226;10.400;2023-08-01T10:42:03;3.40;;;2.05;;
51312;SDS011;37397;53.226;10.400;2023-08-01T10:44:31;4.28;;;1.95;;
51312;SDS011;37397;53.226;10.400;2023-08-01T10:47:01;3.97;;;2.00;;
51312;SDS011;37397;53.226;10.400;2023-08-01T10:49:39;4.15;;;1.80;;
51312;SDS011;37397;53.226;10.400;2023-08-01T10:52:19;5.63;;;2.20;;
51312;SDS011;37397;53.226;10.400;2023-08-01T10:57:25;5.35;;;2.30;;
51312;SDS011;37397;53.226;10.400;2023-08-01T10:59:52;3.03;;;1.92;;
51312;SDS011;37397;53.226;10.400;2023-08-01T11:02:27;6.20;;;2.30;;
51312;SDS011;37397;53.226;10.400;2023-08-01T11:05:02;4.72;;;2.08;;
51312;SDS011;37397;53.226;10.400;2023-08-01T11:07:30;3.95;;;2.08;;
51312;SDS011;37397;53.226;10.400;2023-08-01T11:10:13;5.57;;;2.20;;
51312;SDS011;37397;53.226;10.400;2023-08-01T11:12:41;4.10;;;1.98;;
51312;SDS011;37397;53.226;10.400;2023-08-01T11:15:09;6.03;;;2.40;;
51312;SDS011;37397;53.226;10.400;2023-08-01T11:17:41;4.07;;;2.13;;
51312;SDS011;37397;53.226;10.400;2023-08-01T11:20:28;3.17;;;2.00;;
51312;SDS011;37397;53.226;10.400;2023-08-01T11:22:56;5.10;;;2.33;;
51312;SDS011;37397;53.226;10.400;2023-08-01T11:28:11;4.32;;;1.90;;
51312;SDS011;37397;53.226;10.400;2023-08-01T11:30:40;2.90;;;1.70;;
51312;SDS011;37397;53.226;10.400;2023-08-01T11:33:17;4.20;;;2.17;;
51312;SDS011;37397;53.226;10.400;2023-08-01T11:35:44;5.82;;;2.05;;
51312;SDS011;37397;53.226;10.400;2023-08-01T11:38:11;5.43;;;2.25;;
51312;SDS011;37397;53.226;10.400;2023-08-01T11:40:38;4.80;;;2.15;;
51312;SDS011;37397;53.226;10.400;2023-08-01T11:43:06;4.70;;;2.13;;
51312;SDS011;37397;53.226;10.400;2023-08-01T11:45:32;4.30;;;1.65;;
51312;SDS011;37397;53.226;10.400;2023-08-01T11:47:59;3.90;;;1.95;;
51312;SDS011;37397;53.226;10.400;2023-08-01T11:50:26;3.83;;;2.10;;
51312;SDS011;37397;53.226;10.400;2023-08-01T11:52:52;4.32;;;2.20;;
51312;SDS011;37397;53.226;10.400;2023-08-01T11:55:23;4.78;;;1.92;;
51312;SDS011;37397;53.226;10.400;2023-08-01T11:57:58;3.63;;;1.98;;
51312;SDS011;37397;53.226;10.400;2023-08-01T12:00:25;5.70;;;2.40;;
51312;SDS011;37397;53.226;10.400;2023-08-01T12:03:07;9.23;;;2.72;;
51312;SDS011;37397;53.226;10.400;2023-08-01T12:05:40;9.68;;;2.78;;
51312;SDS011;37397;53.226;10.400;2023-08-01T12:08:14;8.30;;;2.35;;
51312;SDS011;37397;53.226;10.400;2023-08-01T12:10:42;6.60;;;2.35;;
51312;SDS011;37397;53.226;10.400;2023-08-01T12:13:20;5.85;;;2.33;;
51312;SDS011;37397;53.226;10.400;2023-08-01T12:15:51;7.30;;;2.20;;
51312;SDS011;37397;53.226;10.400;2023-08-01T12:18:23;6.95;;;2.10;;
51312;SDS011;37397;53.226;10.400;2023-08-01T12:21:10;6.97;;;1.90;;
51312;SDS011;37397;53.226;10.400;2023-08-01T12:23:37;4.45;;;1.90;;
51312;SDS011;37397;53.226;10.400;2023-08-01T12:26:03;4.05;;;2.10;;
51312;SDS011;37397;53.226;10.400;2023-08-01T12:28:30;5.07;;;2.13;;
51312;SDS011;37397;53.226;10.400;2023-08-01T12:30:56;6.60;;;2.03;;
51312;SDS011;37397;53.226;10.400;2023-08-01T12:33:25;4.00;;;1.90;;
51312;SDS011;37397;53.226;10.400;2023-08-01T12:35:54;3.20;;;1.80;;
51312;SDS011;37397;53.226;10.400;2023-08-01T12:38:20;4.75;;;2.05;;
51312;SDS011;37397;53.226;10.400;2023-08-01T12:40:47;6.72;;;2.05;;
51312;SDS011;37397;53.226;10.400;2023-08-01T12:43:14;2.70;;;1.73;;
51312;SDS011;37397;53.226;10.400;2023-08-01T12:45:43;4.80;;;1.98;;
51312;SDS011;37397;53.226;10.400;2023-08-01T12:48:10;5.25;;;2.08;;
51312;SDS011;37397;53.226;10.400;2023-08-01T12:50:36;4.65;;;2.05;;
51312;SDS011;37397;53.226;10.400;2023-08-01T12:53:03;5.50;;;2.30;;
51312;SDS011;37397;53.226;10.400;2023-08-01T12:55:30;5.78;;;2.08;;
51312;SDS011;37397;53.226;10.400;2023-08-01T12:57:56;3.67;;;2.13;;
51312;SDS011;37397;53.226;10.400;2023-08-01T13:00:23;4.90;;;2.10;;
51312;SDS011;37397;53.226;10.400;2023-08-01T13:02:49;3.80;;;2.03;;
51312;SDS011;37397;53.226;10.400;2023-08-01T13:05:17;5.28;;;2.00;;
51312;SDS011;37397;53.226;10.400;2023-08-01T13:07:43;3.47;;;1.73;;
51312;SDS011;37397;53.226;10.400;2023-08-01T13:10:10;3.55;;;2.00;;
51312;SDS011;37397;53.226;10.400;2023-08-01T13:12:36;4.82;;;2.20;;
51312;SDS011;37397;53.226;10.400;2023-08-01T13:15:03;4.93;;;1.90;;
51312;SDS011;37397;53.226;10.400;2023-08-01T13:17:42;3.30;;;1.77;;
51312;SDS011;37397;53.226;10.400;2023-08-01T13:20:09;4.53;;;2.20;;
51312;SDS011;37397;53.226;10.400;2023-08-01T13:22:35;5.95;;;2.38;;
51312;SDS011;37397;53.226;10.400;2023-08-01T13:25:03;5.63;;;1.90;;
51312;SDS011;37397;53.226;10.400;2023-08-01T13:27:30;3.67;;;1.80;;
51312;SDS011;37397;53.226;10.400;2023-08-01T13:29:57;4.97;;;1.90;;
51312;SDS011;37397;53.226;10.400;2023-08-01T13:32:23;3.95;;;2.10;;
51312;SDS011;37397;53.226;10.400;2023-08-01T13:34:50;4.63;;;2.13;;
51312;SDS011;37397;53.226;10.400;2023-08-01T13:37:16;5.53;;;1.92;;
51312;SDS011;37397;53.226;10.400;2023-08-01T13:39:43;4.53;;;2.00;;
51312;SDS011;37397;53.226;10.400;2023-08-01T13:42:12;4.25;;;2.00;;
51312;SDS011;37397;53.226;10.400;2023-08-01T13:44:40;4.72;;;2.30;;
51312;SDS011;37397;53.226;10.400;2023-08-01T13:47:07;4.30;;;2.30;;
51312;SDS011;37397;53.226;10.400;2023-08-01T13:49:34;4.07;;;2.10;;
51312;SDS011;37397;53.226;10.400;2023-08-01T13:52:01;3.38;;;2.08;;
51312;SDS011;37397;53.226;10.400;2023-08-01T13:54:27;5.68;;;2.15;;
51312;SDS011;37397;53.226;10.400;2023-08-01T13:56:54;5.55;;;2.38;;
51312;SDS011;37397;53.226;10.400;2023-08-01T13:59:21;4.90;;;2.35;;
51312;SDS011;37397;53.226;10.400;2023-08-01T14:01:48;5.30;;;2.20;;
51312;SDS011;37397;53.226;10.400;2023-08-01T14:04:14;5.82;;;2.25;;
51312;SDS011;37397;53.226;10.400;2023-08-01T14:06:41;5.93;;;2.20;;
51312;SDS011;37397;53.226;10.400;2023-08-01T14:09:09;2.88;;;1.75;;
51312;SDS011;37397;53.226;10.400;2023-08-01T14:11:36;4.18;;;2.10;;
51312;SDS011;37397;53.226;10.400;2023-08-01T14:14:03;4.32;;;1.70;;
51312;SDS011;37397;53.226;10.400;2023-08-01T14:16:31;3.10;;;1.52;;
51312;SDS011;37397;53.226;10.400;2023-08-01T14:18:58;3.40;;;1.60;;
51312;SDS011;37397;53.226;10.400;2023-08-01T14:21:25;5.57;;;1.70;;
51312;SDS011;37397;53.226;10.400;2023-08-01T14:23:51;3.38;;;1.50;;
51312;SDS011;37397;53.226;10.400;2023-08-01T14:26:18;3.97;;;1.38;;
51312;SDS011;37397;53.226;10.400;2023-08-01T14:28:44;3.10;;;1.40;;
51312;SDS011;37397;53.226;10.400;2023-08-01T14:31:12;3.42;;;1.45;;
51312;SDS011;37397;53.226;10.400;2023-08-01T14:33:39;3.53;;;1.40;;
51312;SDS011;37397;53.226;10.400;2023-08-01T14:36:09;2.30;;;1.15;;
51312;SDS011;37397;53.226;10.400;2023-08-01T14:38:38;2.63;;;1.23;;
51312;SDS011;37397;53.226;10.400;2023-08-01T14:41:06;2.53;;;1.20;;
51312;SDS011;37397;53.226;10.400;2023-08-01T14:43:47;3.03;;;1.33;;